createdAt,value
2019-03-10T00:00:48.114Z,99669.32
2019-03-10T00:03:17.580Z,99670.19
2019-03-10T00:05:47.199Z,99680.48
2019-03-10T00:08:16.640Z,99691.55
2019-03-10T00:10:46.119Z,99702.13
2019-03-10T00:13:15.563Z,99702.88
2019-03-10T00:15:45.046Z,99699.72
2019-03-10T00:18:14.520Z,99700.68
2019-03-10T00:20:43.994Z,99695.71
2019-03-10T00:23:13.438Z,99691.23
2019-03-10T00:25:42.903Z,99694.73
2019-03-10T00:28:12.926Z,99698.98
2019-03-10T00:30:42.475Z,99698.15
2019-03-10T00:33:14.700Z,99686.27
2019-03-10T00:35:44.209Z,99683.86
2019-03-10T00:38:13.662Z,99673.73
2019-03-10T00:41:04.432Z,99673.48
2019-03-10T00:43:42.884Z,99684.14
2019-03-10T00:46:34.051Z,99690.33
2019-03-10T00:49:34.254Z,99689.36
2019-03-10T00:52:12.413Z,99690.45
2019-03-10T00:54:41.865Z,99698.23
2019-03-10T00:57:11.326Z,99704.53
2019-03-10T00:59:41.131Z,99698.48
2019-03-10T01:02:10.672Z,99702.84
2019-03-10T01:04:40.441Z,99701.95
2019-03-10T01:07:10.167Z,99708.86
2019-03-10T01:09:39.787Z,99706.56
2019-03-10T01:12:09.412Z,99712.73
2019-03-10T01:14:38.873Z,99702.92
2019-03-10T01:17:08.378Z,99692.39
2019-03-10T01:19:37.990Z,99696.18
2019-03-10T01:22:07.438Z,99698.00
2019-03-10T01:24:37.061Z,99686.86
2019-03-10T01:27:06.558Z,99689.28
2019-03-10T01:29:35.996Z,99693.96
2019-03-10T01:32:28.321Z,99694.93
2019-03-10T01:35:03.889Z,99694.09
2019-03-10T01:37:33.328Z,99693.59
2019-03-10T01:40:02.797Z,99689.12
2019-03-10T01:42:32.242Z,99680.27
2019-03-10T01:45:02.072Z,99676.72
2019-03-10T01:47:31.592Z,99665.37
2019-03-10T01:50:00.995Z,99666.34
2019-03-10T01:52:30.452Z,99661.49
2019-03-10T01:54:59.880Z,99665.56
2019-03-10T01:57:29.322Z,99653.06
2019-03-10T01:59:58.762Z,99654.83
2019-03-10T02:02:28.208Z,99644.63
2019-03-10T02:04:58.006Z,99651.16
2019-03-10T02:07:27.529Z,99643.58
2019-03-10T02:09:57.436Z,99644.27
2019-03-10T02:12:26.951Z,99646.06
2019-03-10T02:14:56.467Z,99640.98
2019-03-10T02:17:25.986Z,99634.23
2019-03-10T02:19:55.601Z,99642.11
2019-03-10T02:22:25.322Z,99637.44
2019-03-10T02:24:54.849Z,99639.42
2019-03-10T02:27:24.297Z,99630.63
2019-03-10T02:29:54.353Z,99619.48
2019-03-10T02:32:24.280Z,99614.59
2019-03-10T02:34:53.820Z,99614.38
2019-03-10T02:37:23.279Z,99611.31
2019-03-10T02:39:52.713Z,99614.91
2019-03-10T02:42:22.162Z,99610.16
2019-03-10T02:44:51.671Z,99620.05
2019-03-10T02:47:21.198Z,99605.30
2019-03-10T02:49:50.985Z,99611.68
2019-03-10T02:52:20.439Z,99613.02
2019-03-10T02:54:49.905Z,99603.31
2019-03-10T02:57:19.345Z,99599.61
2019-03-10T02:59:49.150Z,99592.45
2019-03-10T03:02:18.745Z,99597.17
2019-03-10T03:04:48.271Z,99597.79
2019-03-10T03:07:17.717Z,99585.15
2019-03-10T03:09:47.428Z,99580.48
2019-03-10T03:12:16.889Z,99570.50
2019-03-10T03:14:46.342Z,99570.38
2019-03-10T03:17:15.789Z,99572.47
2019-03-10T03:19:45.215Z,99578.30
2019-03-10T03:22:14.673Z,99565.87
2019-03-10T03:24:44.115Z,99569.03
2019-03-10T03:27:13.645Z,99555.28
2019-03-10T03:29:43.095Z,99554.21
2019-03-10T03:32:12.991Z,99555.95
2019-03-10T03:34:42.453Z,99554.27
2019-03-10T03:37:12.545Z,99551.81
2019-03-10T03:39:42.041Z,99539.57
2019-03-10T03:42:11.504Z,99543.94
2019-03-10T03:44:41.277Z,99540.28
2019-03-10T03:47:10.758Z,99535.02
2019-03-10T03:49:40.215Z,99525.00
2019-03-10T03:52:09.673Z,99519.02
2019-03-10T03:54:39.109Z,99518.88
2019-03-10T03:57:08.667Z,99520.79
2019-03-10T03:59:38.469Z,99513.55
2019-03-10T04:02:12.475Z,99516.80
2019-03-10T04:04:42.244Z,99513.33
2019-03-10T04:07:11.706Z,99509.75
2019-03-10T04:09:41.151Z,99510.99
2019-03-10T04:12:10.614Z,99498.33
2019-03-10T04:14:40.082Z,99500.23
2019-03-10T04:17:09.755Z,99506.84
2019-03-10T04:19:39.603Z,99502.77
2019-03-10T04:22:09.038Z,99502.34
2019-03-10T04:24:38.491Z,99505.16
2019-03-10T04:27:08.231Z,99502.27
2019-03-10T04:29:37.726Z,99496.50
2019-03-10T04:32:07.155Z,99484.22
2019-03-10T04:34:36.590Z,99476.76
2019-03-10T04:37:06.048Z,99483.72
2019-03-10T04:39:35.501Z,99477.04
2019-03-10T04:42:05.243Z,99482.59
2019-03-10T04:44:36.347Z,99483.16
2019-03-10T04:47:05.933Z,99473.03
2019-03-10T04:49:35.389Z,99478.72
2019-03-10T04:52:05.236Z,99477.88
2019-03-10T04:54:42.586Z,99480.23
2019-03-10T04:57:13.819Z,99471.06
2019-03-10T04:59:43.476Z,99472.05
2019-03-10T05:02:12.965Z,99472.89
2019-03-10T05:04:42.419Z,99465.86
2019-03-10T05:07:11.909Z,99463.25
2019-03-10T05:09:41.374Z,99458.82
2019-03-10T05:12:10.829Z,99453.69
2019-03-10T05:14:41.669Z,99452.07
2019-03-10T05:17:11.129Z,99451.36
2019-03-10T05:19:40.579Z,99445.25
2019-03-10T05:22:10.080Z,99447.64
2019-03-10T05:24:39.561Z,99441.97
2019-03-10T05:27:09.040Z,99446.80
2019-03-10T05:29:38.545Z,99432.02
2019-03-10T05:32:07.979Z,99425.55
2019-03-10T05:34:37.510Z,99426.11
2019-03-10T05:37:06.980Z,99427.38
2019-03-10T05:39:36.821Z,99430.69
2019-03-10T05:42:06.271Z,99426.11
2019-03-10T05:44:35.810Z,99429.27
2019-03-10T05:47:05.284Z,99417.03
2019-03-10T05:49:34.741Z,99417.67
2019-03-10T05:52:04.200Z,99418.09
2019-03-10T05:54:33.654Z,99417.48
2019-03-10T05:57:03.237Z,99417.07
2019-03-10T05:59:32.708Z,99415.45
2019-03-10T06:02:02.141Z,99410.17
2019-03-10T06:04:31.599Z,99403.69
2019-03-10T06:07:01.038Z,99401.02
2019-03-10T06:09:30.511Z,99396.52
2019-03-10T06:11:59.969Z,99389.48
2019-03-10T06:14:29.437Z,99386.17
2019-03-10T06:16:59.210Z,99383.01
2019-03-10T06:19:28.729Z,99381.94
2019-03-10T06:21:58.549Z,99369.52
2019-03-10T06:24:28.167Z,99360.53
2019-03-10T06:26:57.612Z,99361.52
2019-03-10T06:29:27.078Z,99356.28
2019-03-10T06:31:56.559Z,99349.55
2019-03-10T06:34:26.016Z,99339.70
2019-03-10T06:36:55.468Z,99342.19
2019-03-10T06:39:24.941Z,99347.94
2019-03-10T06:41:54.401Z,99336.23
2019-03-10T06:44:23.890Z,99342.59
2019-03-10T06:46:53.347Z,99336.45
2019-03-10T06:49:22.844Z,99327.47
2019-03-10T06:51:52.304Z,99313.44
2019-03-10T06:54:21.788Z,99306.63
2019-03-10T06:56:51.614Z,99300.59
2019-03-10T06:59:21.145Z,99296.12
2019-03-10T07:01:50.628Z,99296.77
2019-03-10T07:04:20.079Z,99289.58
2019-03-10T07:06:49.533Z,99286.59
2019-03-10T07:09:18.998Z,99287.78
2019-03-10T07:11:48.446Z,99280.78
2019-03-10T07:14:17.903Z,99288.48
2019-03-10T07:16:47.410Z,99276.77
2019-03-10T07:19:16.852Z,99263.22
2019-03-10T07:21:46.313Z,99275.47
2019-03-10T07:24:15.816Z,99263.22
2019-03-10T07:26:45.276Z,99249.56
2019-03-10T07:29:28.331Z,99238.77
2019-03-10T07:32:05.375Z,99217.03
2019-03-10T07:34:52.745Z,99206.55
2019-03-10T07:37:29.455Z,99199.31
2019-03-10T07:40:06.507Z,99205.05
2019-03-10T07:42:40.778Z,99202.13
2019-03-10T07:45:11.870Z,99203.99
2019-03-10T07:47:42.953Z,99198.16
2019-03-10T07:50:16.704Z,99209.74
2019-03-10T07:53:02.865Z,99209.45
2019-03-10T07:55:33.957Z,99211.95
2019-03-10T07:58:22.065Z,99216.50
2019-03-10T08:01:05.569Z,99216.71
2019-03-10T08:03:39.363Z,99214.02
2019-03-10T08:06:16.354Z,99221.08
2019-03-10T08:08:50.246Z,99220.58
2019-03-10T08:11:24.751Z,99223.09
2019-03-10T08:13:55.957Z,99222.76
2019-03-10T08:16:33.225Z,99219.09
2019-03-10T08:19:07.136Z,99224.17
2019-03-10T08:21:38.257Z,99222.42
2019-03-10T08:24:12.265Z,99220.80
2019-03-10T08:26:43.683Z,99213.83
2019-03-10T08:29:14.810Z,99215.55
2019-03-10T08:31:45.909Z,99206.88
2019-03-10T08:34:32.583Z,99208.13
2019-03-10T08:37:12.645Z,99206.36
2019-03-10T08:39:52.985Z,99199.17
2019-03-10T08:42:24.089Z,99200.05
2019-03-10T08:44:57.834Z,99191.13
2019-03-10T08:47:34.710Z,99191.38
2019-03-10T08:50:07.859Z,99181.88
2019-03-10T08:52:51.027Z,99172.72
2019-03-10T08:55:22.133Z,99173.16
2019-03-10T08:57:58.966Z,99168.59
2019-03-10T09:00:33.235Z,99161.95
2019-03-10T09:03:04.739Z,99155.56
2019-03-10T09:05:35.865Z,99152.47
2019-03-10T09:08:06.980Z,99155.58
2019-03-10T09:10:54.294Z,99147.37
2019-03-10T09:13:25.414Z,99137.47
2019-03-10T09:16:11.340Z,99131.58
2019-03-10T09:18:58.799Z,99122.90
2019-03-10T09:21:46.441Z,99117.08
2019-03-10T09:24:32.609Z,99108.28
2019-03-10T09:27:20.053Z,99098.92
2019-03-10T09:29:51.222Z,99092.70
2019-03-10T09:32:38.519Z,99076.77
2019-03-10T09:35:12.432Z,99074.20
2019-03-10T09:37:54.068Z,99067.71
2019-03-10T09:40:31.531Z,99058.95
2019-03-10T09:43:10.820Z,99052.75
2019-03-10T09:46:06.289Z,99045.68
2019-03-10T09:48:55.990Z,99045.34
2019-03-10T09:51:32.586Z,99039.07
2019-03-10T09:54:16.201Z,99036.45
2019-03-10T09:56:56.268Z,99031.75
2019-03-10T09:59:39.141Z,99022.25
2019-03-10T10:02:21.675Z,99019.67
2019-03-10T10:05:15.594Z,99014.92
2019-03-10T10:08:05.027Z,99010.13
2019-03-10T10:10:41.918Z,99017.64
2019-03-10T10:16:23.437Z,98998.55
2019-03-10T10:19:00.433Z,98989.74
2019-03-10T10:21:32.354Z,98976.30
2019-03-10T10:24:18.779Z,98971.30
2019-03-10T10:26:55.699Z,98968.33
2019-03-10T10:29:26.898Z,98970.05
2019-03-10T10:32:10.318Z,98950.05
2019-03-10T10:34:51.822Z,98949.45
2019-03-10T10:37:24.729Z,98942.04
2019-03-10T10:40:01.724Z,98926.87
2019-03-10T10:42:43.842Z,98920.34
2019-03-10T10:45:17.744Z,98912.75
2019-03-10T10:47:52.875Z,98903.39
2019-03-10T10:50:45.083Z,98890.08
2019-03-10T10:53:27.623Z,98890.32
2019-03-10T10:56:03.210Z,98882.64
2019-03-10T10:58:34.603Z,98876.02
2019-03-10T11:01:05.871Z,98869.06
2019-03-10T11:03:53.050Z,98855.83
2019-03-10T11:06:30.375Z,98849.80
2019-03-10T11:09:04.045Z,98837.03
2019-03-10T11:11:50.589Z,98827.03
2019-03-10T11:14:25.041Z,98813.67
2019-03-10T11:17:12.365Z,98813.17
2019-03-10T11:19:43.529Z,98807.52
2019-03-10T11:22:20.349Z,98787.50
2019-03-10T11:24:51.484Z,98785.41
2019-03-10T11:27:38.987Z,98774.50
2019-03-10T11:30:13.239Z,98770.00
2019-03-10T11:32:59.673Z,98758.13
2019-03-10T11:35:38.079Z,98749.45
2019-03-10T11:38:09.218Z,98736.63
2019-03-10T11:40:40.358Z,98723.41
2019-03-10T11:46:28.484Z,98709.78
2019-03-10T11:49:15.699Z,98697.90
2019-03-10T11:51:46.966Z,98677.47
2019-03-10T11:54:20.929Z,98666.46
2019-03-10T11:57:07.168Z,98653.78
2019-03-10T11:59:53.736Z,98642.75
2019-03-10T12:02:25.724Z,98630.36
2019-03-10T12:05:02.783Z,98625.22
2019-03-10T12:07:33.985Z,98620.77
2019-03-10T12:10:07.506Z,98606.87
2019-03-10T12:12:36.989Z,98598.39
2019-03-10T12:15:12.335Z,98593.05
2019-03-10T12:17:41.904Z,98588.17
2019-03-10T12:20:13.222Z,98565.45
2019-03-10T12:22:42.877Z,98550.72
2019-03-10T12:25:13.470Z,98544.88
2019-03-10T12:27:42.998Z,98525.84
2019-03-10T12:30:14.428Z,98566.80
2019-03-10T12:32:44.090Z,98505.34
2019-03-10T12:35:16.004Z,98530.72
2019-03-10T12:37:45.686Z,98521.38
2019-03-10T12:40:15.173Z,98488.48
2019-03-10T12:42:44.652Z,98492.47
2019-03-10T12:45:14.181Z,98503.48
2019-03-10T12:47:43.653Z,98488.51
2019-03-10T12:50:14.750Z,98445.44
2019-03-10T12:52:44.201Z,98446.64
2019-03-10T12:55:13.930Z,98431.25
2019-03-10T12:57:43.481Z,98334.27
2019-03-10T13:00:16.463Z,98396.18
2019-03-10T13:02:47.857Z,98408.17
2019-03-10T13:05:17.385Z,98414.02
2019-03-10T13:07:47.108Z,98398.58
2019-03-10T13:10:16.545Z,98405.42
2019-03-10T13:12:46.089Z,98393.53
2019-03-10T13:15:15.591Z,98395.84
2019-03-10T13:17:45.082Z,98387.28
2019-03-10T13:20:27.532Z,98386.46
2019-03-10T13:22:47.516Z,98376.53
2019-03-10T13:25:16.974Z,98371.88
2019-03-10T13:27:46.440Z,98368.01
2019-03-10T13:30:16.532Z,98359.81
2019-03-10T13:32:46.384Z,98343.12
2019-03-10T13:35:15.885Z,98319.53
2019-03-10T13:37:45.342Z,98315.27
2019-03-10T13:40:15.573Z,98316.36
2019-03-10T13:42:45.038Z,98300.09
2019-03-10T13:45:18.715Z,98307.08
2019-03-10T13:47:48.530Z,98296.02
2019-03-10T13:50:17.994Z,98285.24
2019-03-10T13:52:47.433Z,98272.01
2019-03-10T13:55:16.885Z,98236.55
2019-03-10T13:57:46.430Z,98235.45
2019-03-10T14:00:22.323Z,98244.86
2019-03-10T14:02:51.867Z,98240.73
2019-03-10T14:05:21.334Z,98234.72
2019-03-10T14:07:51.041Z,98225.58
2019-03-10T14:10:20.500Z,98236.72
2019-03-10T14:12:49.982Z,98232.63
2019-03-10T14:15:20.096Z,98229.31
2019-03-10T14:17:49.573Z,98227.26
2019-03-10T14:20:19.014Z,98216.84
2019-03-10T14:22:48.471Z,98220.07
2019-03-10T14:25:18.222Z,98225.85
2019-03-10T14:27:47.679Z,98221.61
2019-03-10T14:30:18.773Z,98221.61
2019-03-10T14:32:48.263Z,98217.71
2019-03-10T14:35:17.709Z,98219.69
2019-03-10T14:37:47.893Z,98224.11
2019-03-10T14:40:18.878Z,98227.52
2019-03-10T14:42:48.337Z,98230.55
2019-03-10T14:45:18.516Z,98207.80
2019-03-10T14:47:47.965Z,98182.11
2019-03-10T14:50:18.357Z,98180.98
2019-03-10T14:52:48.154Z,98186.94
2019-03-10T14:55:22.119Z,98186.98
2019-03-10T14:57:51.568Z,98185.27
2019-03-10T15:00:28.223Z,98181.94
2019-03-10T15:02:57.691Z,98178.23
2019-03-10T15:05:27.198Z,98172.41
2019-03-10T15:07:56.640Z,98160.71
2019-03-10T15:10:26.104Z,98173.02
2019-03-10T15:12:55.565Z,98178.63
2019-03-10T15:15:25.038Z,98185.06
2019-03-10T15:17:54.494Z,98184.23
2019-03-10T15:20:24.020Z,98201.59
2019-03-10T15:22:53.475Z,98221.91
2019-03-10T15:25:25.117Z,98220.78
2019-03-10T15:27:55.118Z,98234.11
2019-03-10T15:30:27.863Z,98239.61
2019-03-10T15:32:57.316Z,98251.88
2019-03-10T15:35:27.657Z,98278.19
2019-03-10T15:37:57.116Z,98257.42
2019-03-10T15:40:26.552Z,98271.16
2019-03-10T15:42:55.997Z,98250.44
2019-03-10T15:45:27.796Z,98218.24
2019-03-10T15:47:56.677Z,98177.09
2019-03-10T15:50:31.008Z,98165.77
2019-03-10T15:53:00.429Z,98159.11
2019-03-10T15:55:29.943Z,98160.09
2019-03-10T15:57:59.725Z,98168.59
2019-03-10T16:00:29.367Z,98166.41
2019-03-10T16:02:59.183Z,98173.77
2019-03-10T16:05:28.622Z,98171.41
2019-03-10T16:07:59.516Z,98165.27
2019-03-10T16:10:29.313Z,98161.75
2019-03-10T16:12:58.741Z,98170.63
2019-03-10T16:15:29.343Z,98165.95
2019-03-10T16:17:59.147Z,98165.27
2019-03-10T16:20:29.208Z,98170.81
2019-03-10T16:23:00.016Z,98166.78
2019-03-10T16:25:29.487Z,98188.10
2019-03-10T16:27:58.941Z,98195.90
2019-03-10T16:30:29.200Z,98210.13
2019-03-10T16:32:58.723Z,98229.78
2019-03-10T16:35:28.180Z,98206.02
2019-03-10T16:37:57.619Z,98181.84
2019-03-10T16:40:27.167Z,98179.91
2019-03-10T16:42:56.621Z,98206.47
2019-03-10T16:45:29.254Z,98190.89
2019-03-10T16:47:58.950Z,98210.56
2019-03-10T16:50:28.940Z,98204.55
2019-03-10T16:52:58.382Z,98189.49
2019-03-10T16:55:27.835Z,98183.48
2019-03-10T16:57:57.340Z,98194.28
2019-03-10T17:00:26.833Z,98199.17
2019-03-10T17:02:56.942Z,98201.30
2019-03-10T17:05:26.391Z,98194.89
2019-03-10T17:07:56.133Z,98204.19
2019-03-10T17:10:26.687Z,98221.39
2019-03-10T17:12:56.235Z,98233.67
2019-03-10T17:15:26.313Z,98261.81
2019-03-10T17:17:55.739Z,98254.86
2019-03-10T17:20:25.559Z,98241.55
2019-03-10T17:22:54.957Z,98256.27
2019-03-10T17:25:24.421Z,98227.83
2019-03-10T17:27:53.943Z,98241.27
2019-03-10T17:30:24.248Z,98245.98
2019-03-10T17:32:53.688Z,98214.91
2019-03-10T17:35:23.285Z,98237.25
2019-03-10T17:37:52.757Z,98234.25
2019-03-10T17:40:23.529Z,98246.73
2019-03-10T17:42:53.502Z,98230.47
2019-03-10T17:45:26.708Z,98235.73
2019-03-10T17:47:56.158Z,98241.52
2019-03-10T17:50:25.618Z,98248.61
2019-03-10T17:52:55.129Z,98256.61
2019-03-10T17:55:25.636Z,98257.23
2019-03-10T17:57:55.246Z,98260.61
2019-03-10T18:00:26.672Z,98259.31
2019-03-10T18:02:56.314Z,98270.17
2019-03-10T18:05:25.815Z,98267.27
2019-03-10T18:07:55.250Z,98283.89
2019-03-10T18:10:24.733Z,98283.80
2019-03-10T18:12:54.200Z,98280.80
2019-03-10T18:15:23.986Z,98276.84
2019-03-10T18:17:53.515Z,98285.28
2019-03-10T18:20:24.139Z,98287.71
2019-03-10T18:22:53.631Z,98277.42
2019-03-10T18:25:23.085Z,98292.34
2019-03-10T18:27:52.542Z,98297.78
2019-03-10T18:30:28.250Z,98297.27
2019-03-10T18:32:57.751Z,98310.02
2019-03-10T18:35:27.228Z,98312.45
2019-03-10T18:37:56.673Z,98319.59
2019-03-10T18:40:27.270Z,98304.05
2019-03-10T18:42:56.703Z,98336.66
2019-03-10T18:45:26.169Z,98329.39
2019-03-10T18:47:55.694Z,98329.69
2019-03-10T18:50:27.218Z,98292.41
2019-03-10T18:52:56.664Z,98318.03
2019-03-10T18:55:26.254Z,98328.91
2019-03-10T18:57:56.393Z,98291.02
2019-03-10T19:00:29.993Z,98322.58
2019-03-10T19:02:59.656Z,98303.93
2019-03-10T19:05:29.893Z,98279.34
2019-03-10T19:07:59.562Z,98308.14
2019-03-10T19:10:29.093Z,98303.18
2019-03-10T19:12:59.554Z,98284.81
2019-03-10T19:15:29.821Z,98301.19
2019-03-10T19:17:59.260Z,98302.72
2019-03-10T19:20:28.735Z,98311.55
2019-03-10T19:22:58.212Z,98316.66
2019-03-10T19:25:27.654Z,98308.28
2019-03-10T19:27:57.108Z,98367.10
2019-03-10T19:30:27.340Z,98328.95
2019-03-10T19:32:56.847Z,98348.87
2019-03-10T19:35:26.310Z,98341.23
2019-03-10T19:37:56.040Z,98346.92
2019-03-10T19:40:26.058Z,98368.95
2019-03-10T19:42:55.521Z,98362.09
2019-03-10T19:45:25.367Z,98370.02
2019-03-10T19:47:55.178Z,98380.89
2019-03-10T19:50:31.112Z,98356.41
2019-03-10T19:53:00.610Z,98357.84
2019-03-10T19:55:30.071Z,98377.42
2019-03-10T19:58:04.526Z,98361.13
2019-03-10T20:00:34.384Z,98395.72
2019-03-10T20:03:09.601Z,98397.00
2019-03-10T20:05:53.196Z,98394.41
2019-03-10T20:08:39.054Z,98402.92
2019-03-10T20:11:20.367Z,98418.38
2019-03-10T20:13:55.857Z,98441.59
2019-03-10T20:16:43.103Z,98414.89
2019-03-10T20:19:14.432Z,98426.68
2019-03-10T20:21:55.566Z,98429.22
2019-03-10T20:24:30.077Z,98435.09
2019-03-10T20:27:04.439Z,98419.40
2019-03-10T20:29:38.685Z,98385.46
2019-03-10T20:32:13.879Z,98427.48
2019-03-10T20:34:40.065Z,98439.56
2019-03-10T20:37:09.512Z,98457.58
2019-03-10T20:39:38.960Z,98465.30
2019-03-10T20:42:08.460Z,98435.86
2019-03-10T20:44:37.905Z,98502.72
2019-03-10T20:47:07.359Z,98511.77
2019-03-10T20:49:37.521Z,98593.78
2019-03-10T20:52:07.057Z,98531.93
2019-03-10T20:54:36.506Z,98587.48
2019-03-10T20:57:05.943Z,98586.08
2019-03-10T20:59:35.400Z,98644.45
2019-03-10T21:02:05.213Z,98682.64
2019-03-10T21:04:35.093Z,98677.16
2019-03-10T21:07:04.617Z,98720.81
2019-03-10T21:09:35.152Z,98770.48
2019-03-10T21:12:04.691Z,98805.23
2019-03-10T21:14:34.272Z,98832.25
2019-03-10T21:17:03.769Z,98847.00
2019-03-10T21:19:33.295Z,98888.44
2019-03-10T21:22:03.327Z,98927.49
2019-03-10T21:24:33.055Z,98943.94
2019-03-10T21:27:02.659Z,98957.55
2019-03-10T21:29:34.101Z,99018.20
2019-03-10T21:32:03.569Z,99020.28
2019-03-10T21:34:33.037Z,99050.27
2019-03-10T21:37:02.511Z,99062.27
2019-03-10T21:39:34.967Z,99088.50
2019-03-10T21:42:03.579Z,99099.22
2019-03-10T21:44:33.021Z,99106.14
2019-03-10T21:47:02.632Z,99135.75
2019-03-10T21:49:32.254Z,99158.88
2019-03-10T21:52:01.737Z,99163.23
2019-03-10T21:54:31.206Z,99193.55
2019-03-10T21:57:00.689Z,99207.80
2019-03-10T21:59:30.146Z,99228.45
2019-03-10T22:02:00.018Z,99231.59
2019-03-10T22:04:29.828Z,99249.14
2019-03-10T22:06:59.925Z,99264.23
2019-03-10T22:09:29.465Z,99277.99
2019-03-10T22:11:58.927Z,99299.36
2019-03-10T22:14:28.845Z,99304.19
2019-03-10T22:16:58.622Z,99326.40
2019-03-10T22:19:28.073Z,99330.63
2019-03-10T22:21:57.680Z,99346.68
2019-03-10T22:24:27.353Z,99352.34
2019-03-10T22:26:57.009Z,99364.44
2019-03-10T22:29:26.578Z,99376.59
2019-03-10T22:31:56.246Z,99380.57
2019-03-10T22:34:25.746Z,99397.09
2019-03-10T22:36:55.228Z,99401.53
2019-03-10T22:39:25.006Z,99399.23
2019-03-10T22:41:54.637Z,99414.69
2019-03-10T22:44:24.279Z,99418.92
2019-03-10T22:46:53.731Z,99423.63
2019-03-10T22:49:23.223Z,99429.08
2019-03-10T22:51:52.772Z,99437.04
2019-03-10T22:54:22.489Z,99427.63
2019-03-10T22:56:51.953Z,99435.12
2019-03-10T22:59:21.808Z,99448.98
2019-03-10T23:01:51.402Z,99451.75
2019-03-10T23:04:20.862Z,99452.83
2019-03-10T23:06:50.313Z,99456.92
2019-03-10T23:09:19.772Z,99457.42
2019-03-10T23:11:49.225Z,99467.56
2019-03-10T23:14:18.710Z,99461.52
2019-03-10T23:16:48.529Z,99463.95
2019-03-10T23:19:18.018Z,99463.11
2019-03-10T23:21:47.464Z,99469.48
2019-03-10T23:24:16.924Z,99481.93
2019-03-10T23:26:46.367Z,99474.59
2019-03-10T23:29:15.835Z,99480.01
2019-03-10T23:31:45.311Z,99484.84
2019-03-10T23:34:14.761Z,99481.45
2019-03-10T23:36:44.476Z,99491.47
2019-03-10T23:39:13.941Z,99489.19
2019-03-10T23:41:43.376Z,99493.54
2019-03-10T23:44:12.834Z,99489.33
2019-03-10T23:46:42.269Z,99497.06
2019-03-10T23:49:13.366Z,99493.93
2019-03-10T23:51:43.115Z,99499.35
2019-03-10T23:54:12.582Z,99501.04
2019-03-10T23:56:42.023Z,99510.22
2019-03-10T23:59:11.497Z,99505.98
